createdAt,value
2017-03-19T08:24:05.533Z,6436
2017-03-19T08:25:05.828Z,6628
2017-03-19T08:26:05.175Z,7192
2017-03-19T08:27:05.479Z,7576
2017-03-19T08:28:05.157Z,8104
2017-03-19T08:29:05.450Z,8880
2017-03-19T08:30:05.450Z,8856
2017-03-19T08:31:05.739Z,8424
2017-03-19T08:32:05.724Z,8368
2017-03-19T08:33:05.709Z,8776
2017-03-19T08:34:05.698Z,9536
2017-03-19T08:35:05.055Z,10192
2017-03-19T08:36:05.354Z,10024
2017-03-19T08:37:05.032Z,8872
2017-03-19T08:38:05.330Z,8108
2017-03-19T08:39:05.632Z,8116
2017-03-19T08:40:05.624Z,7348
2017-03-19T08:41:05.294Z,6104
2017-03-19T08:42:05.283Z,5480
2017-03-19T08:43:05.596Z,5196
2017-03-19T08:44:05.570Z,5040
2017-03-19T08:45:05.560Z,5424
2017-03-19T08:46:05.557Z,5824
2017-03-19T08:47:05.225Z,5704
2017-03-19T08:48:05.212Z,5988
2017-03-19T08:49:05.197Z,6852
2017-03-19T08:50:05.192Z,7512
2017-03-19T08:51:05.529Z,7380
2017-03-19T08:52:05.486Z,7176
2017-03-19T08:53:05.475Z,7220
2017-03-19T08:54:05.146Z,7208
2017-03-19T08:55:05.170Z,7316
2017-03-19T08:56:05.440Z,6900
2017-03-19T08:57:05.110Z,6120
2017-03-19T08:58:05.421Z,5624
2017-03-19T08:59:05.405Z,5328
2017-03-19T09:00:05.078Z,4848
2017-03-19T09:01:05.069Z,4804
2017-03-19T09:02:05.373Z,4832
2017-03-19T09:03:05.365Z,4876
2017-03-19T09:04:05.353Z,4904
2017-03-19T09:05:05.028Z,4944
2017-03-19T09:06:05.328Z,4780
2017-03-19T09:07:05.316Z,4412
2017-03-19T09:08:04.997Z,4484
2017-03-19T09:09:05.306Z,4696
2017-03-19T09:10:04.978Z,4820
2017-03-19T09:11:05.276Z,4884
2017-03-19T09:12:04.953Z,5068
2017-03-19T09:13:04.939Z,5060
2017-03-19T09:14:04.934Z,5236
2017-03-19T09:15:05.233Z,5776
2017-03-19T09:16:04.913Z,6336
2017-03-19T09:17:05.217Z,6280
2017-03-19T09:18:05.243Z,6052
2017-03-19T09:19:05.203Z,5844
2017-03-19T09:20:04.870Z,5436
2017-03-19T09:21:05.173Z,5076
2017-03-19T09:22:04.855Z,5316
2017-03-19T09:23:04.842Z,6024
2017-03-19T09:24:05.152Z,6304
2017-03-19T09:25:05.136Z,5328
2017-03-19T09:26:05.121Z,5220
2017-03-19T09:27:04.798Z,5156
2017-03-19T09:28:05.119Z,5344
2017-03-19T09:29:05.095Z,5948
2017-03-19T09:30:05.085Z,6140
2017-03-19T09:31:05.070Z,5496
2017-03-19T09:32:05.065Z,5528
2017-03-19T09:33:05.054Z,4660
2017-03-19T09:34:05.044Z,4240
2017-03-19T09:35:04.721Z,4032
2017-03-19T09:36:05.024Z,3784
2017-03-19T09:37:05.013Z,3564
2017-03-19T09:38:05.002Z,3156
2017-03-19T09:39:04.676Z,3108
2017-03-19T09:40:04.988Z,2952
2017-03-19T09:41:04.652Z,2736
2017-03-19T09:42:04.968Z,2452
2017-03-19T09:43:04.959Z,1956
2017-03-19T09:44:04.942Z,1816
2017-03-19T09:45:04.931Z,1908
2017-03-19T09:46:04.923Z,2852
2017-03-19T09:47:04.593Z,3272
2017-03-19T09:48:04.897Z,5532
2017-03-19T09:49:04.896Z,6708
2017-03-19T09:50:04.875Z,6920
2017-03-19T09:51:04.547Z,7776
2017-03-19T09:52:04.860Z,8004
2017-03-19T09:53:04.846Z,8820
2017-03-19T09:54:04.837Z,8712
2017-03-19T09:55:04.830Z,7872
2017-03-19T09:56:04.505Z,8044
2017-03-19T09:57:04.504Z,8168
2017-03-19T09:58:04.797Z,9896
2017-03-19T09:59:04.796Z,10976
2017-03-19T10:00:04.784Z,12200
2017-03-19T10:01:04.763Z,10344
2017-03-19T10:02:04.756Z,8344
2017-03-19T10:03:04.748Z,8148
2017-03-19T10:04:04.742Z,8168
2017-03-19T10:05:04.729Z,7980
2017-03-19T10:06:04.719Z,7644
2017-03-19T10:07:04.745Z,7080
2017-03-19T10:08:04.703Z,5808
2017-03-19T10:09:04.692Z,4912
2017-03-19T10:10:04.680Z,4884
2017-03-19T10:11:04.667Z,4680
2017-03-19T10:12:04.665Z,5508
2017-03-19T10:13:04.657Z,5668
2017-03-19T10:14:04.646Z,6484
2017-03-19T10:15:04.630Z,5708
2017-03-19T10:16:04.658Z,5272
2017-03-19T10:17:04.612Z,4380
2017-03-19T10:18:04.289Z,4816
2017-03-19T10:19:04.588Z,4516
2017-03-19T10:20:04.587Z,4456
2017-03-19T10:21:04.299Z,4740
2017-03-19T10:22:04.245Z,4952
2017-03-19T10:23:04.558Z,4804
2017-03-19T10:24:04.584Z,4580
2017-03-19T10:25:04.538Z,4088
2017-03-19T10:26:04.210Z,4888
2017-03-19T10:27:04.199Z,4824
2017-03-19T10:28:04.507Z,4716
2017-03-19T10:29:04.524Z,4988
2017-03-19T10:30:04.211Z,5364
2017-03-19T10:31:04.471Z,5272
2017-03-19T10:32:04.148Z,4928
2017-03-19T10:33:04.489Z,4132
2017-03-19T10:34:04.137Z,4188
2017-03-19T10:35:04.438Z,4280
2017-03-19T10:36:04.429Z,4324
2017-03-19T10:37:04.420Z,4104
2017-03-19T10:38:04.413Z,4400
2017-03-19T10:39:04.418Z,4244
2017-03-19T10:40:04.386Z,4664
2017-03-19T10:41:04.377Z,4488
2017-03-19T10:42:04.369Z,4660
2017-03-19T10:43:04.398Z,4836
2017-03-19T10:44:04.037Z,5140
2017-03-19T10:45:04.341Z,5188
2017-03-19T10:46:04.330Z,5160
2017-03-19T10:47:04.322Z,4952
2017-03-19T10:48:04.315Z,4952
2017-03-19T10:49:04.307Z,5124
2017-03-19T10:50:04.299Z,6104
2017-03-19T10:51:04.283Z,6112
2017-03-19T10:52:03.951Z,5992
2017-03-19T10:53:03.949Z,5852
2017-03-19T10:54:03.943Z,5984
2017-03-19T10:55:04.241Z,6148
2017-03-19T10:56:04.233Z,7368
2017-03-19T10:57:04.227Z,7620
2017-03-19T10:58:03.581Z,6392
2017-03-19T10:59:04.217Z,6612
2017-03-19T11:00:03.881Z,7264
2017-03-19T11:01:04.178Z,6072
2017-03-19T11:02:04.178Z,5400
2017-03-19T11:03:04.171Z,5592
2017-03-19T11:04:04.157Z,6284
2017-03-19T11:05:04.159Z,7596
2017-03-19T11:06:03.823Z,6200
2017-03-19T11:07:04.241Z,6732
2017-03-19T11:08:04.120Z,7428
2017-03-19T11:09:04.112Z,6780
2017-03-19T11:10:03.790Z,6008
2017-03-19T11:11:03.778Z,6564
2017-03-19T11:12:04.081Z,6356
2017-03-19T11:13:04.076Z,7220
2017-03-19T11:14:04.074Z,7052
2017-03-19T11:15:03.800Z,7192
2017-03-19T11:16:04.046Z,7044
2017-03-19T11:17:04.038Z,6600
2017-03-19T11:18:04.033Z,9000
2017-03-19T11:19:04.027Z,8088
2017-03-19T11:20:04.014Z,7388
2017-03-19T11:21:04.005Z,7216
2017-03-19T11:22:03.993Z,5248
2017-03-19T11:23:03.991Z,5724
2017-03-19T11:24:03.343Z,6336
2017-03-19T11:25:03.971Z,7372
2017-03-19T11:26:03.957Z,8088
2017-03-19T11:27:03.959Z,6808
2017-03-19T11:28:03.949Z,7092
2017-03-19T11:29:03.937Z,8136
2017-03-19T11:30:03.615Z,8460
2017-03-19T11:31:03.917Z,9152
2017-03-19T11:32:03.913Z,8988
2017-03-19T11:33:03.587Z,9008
2017-03-19T11:34:03.900Z,8604
2017-03-19T11:35:03.896Z,9312
2017-03-19T11:36:03.873Z,9968
2017-03-19T11:37:03.867Z,8088
2017-03-19T11:38:03.862Z,9572
2017-03-19T11:39:03.856Z,10524
2017-03-19T11:40:03.852Z,8168
2017-03-19T11:41:03.829Z,8816
2017-03-19T11:42:03.827Z,8112
2017-03-19T11:43:03.820Z,6420
2017-03-19T11:44:03.501Z,6476
2017-03-19T11:45:03.811Z,6884
2017-03-19T11:46:03.477Z,7332
2017-03-19T11:47:03.821Z,7108
2017-03-19T11:48:03.824Z,8040
2017-03-19T11:49:03.818Z,9148
2017-03-19T11:50:03.766Z,8000
2017-03-19T11:51:03.777Z,8400
2017-03-19T11:52:03.430Z,8968
2017-03-19T11:53:03.427Z,8660
2017-03-19T11:54:03.416Z,6012
2017-03-19T11:55:03.727Z,6824
2017-03-19T11:56:03.720Z,7320
2017-03-19T11:57:03.399Z,7472
2017-03-19T11:58:03.387Z,8200
2017-03-19T11:59:03.699Z,8052
2017-03-19T12:00:03.368Z,8024
2017-03-19T12:01:03.685Z,7732
2017-03-19T12:02:03.670Z,6828
2017-03-19T12:03:03.658Z,6932
2017-03-19T12:04:03.658Z,7996
2017-03-19T12:05:03.649Z,7700
2017-03-19T12:06:03.638Z,8300
2017-03-19T12:07:03.632Z,7244
2017-03-19T12:08:03.631Z,7148
2017-03-19T12:09:03.622Z,6032
2017-03-19T12:10:03.609Z,5908
2017-03-19T12:11:03.606Z,7492
2017-03-19T12:12:03.597Z,6424
2017-03-19T12:13:03.274Z,7256
2017-03-19T12:14:03.270Z,5364
2017-03-19T12:15:03.579Z,5424
2017-03-19T12:16:03.252Z,4692
2017-03-19T12:17:03.560Z,5088
2017-03-19T12:18:03.560Z,4740
2017-03-19T12:19:03.550Z,5968
2017-03-19T12:20:03.542Z,6276
2017-03-19T12:21:03.533Z,7856
2017-03-19T12:22:03.522Z,7380
2017-03-19T12:23:03.519Z,6708
2017-03-19T12:24:03.513Z,6472
2017-03-19T12:25:03.508Z,6112
2017-03-19T12:26:03.177Z,5260
2017-03-19T12:27:03.491Z,5964
2017-03-19T12:28:03.481Z,5364
2017-03-19T12:29:03.478Z,7200
2017-03-19T12:30:03.464Z,5896
2017-03-19T12:31:03.467Z,5216
2017-03-19T12:32:03.496Z,4348
2017-03-19T12:33:03.446Z,4004
2017-03-19T12:34:03.449Z,3040
2017-03-19T12:35:03.428Z,3160
2017-03-19T12:36:03.108Z,3220
2017-03-19T12:37:02.837Z,3784
2017-03-19T12:38:03.406Z,3204
2017-03-19T12:39:03.403Z,3148
2017-03-19T12:40:03.392Z,4016
2017-03-19T12:41:03.069Z,4420
2017-03-19T12:42:03.375Z,4272
2017-03-19T12:43:03.369Z,4340
2017-03-19T12:44:03.371Z,4880
2017-03-19T12:45:03.042Z,6064
2017-03-19T12:46:03.347Z,7868
2017-03-19T12:47:03.339Z,6888
2017-03-19T12:48:03.336Z,6540
2017-03-19T12:49:03.329Z,6300
2017-03-19T12:50:03.315Z,5680
2017-03-19T12:51:03.316Z,5812
2017-03-19T12:52:03.303Z,7164
2017-03-19T12:53:02.980Z,8208
2017-03-19T12:54:02.969Z,6768
2017-03-19T12:55:03.277Z,7716
2017-03-19T12:56:02.957Z,8248
2017-03-19T12:57:03.258Z,6412
2017-03-19T12:58:03.259Z,5368
2017-03-19T12:59:02.620Z,5828
2017-03-19T13:00:03.241Z,6312
2017-03-19T13:01:02.922Z,7088
2017-03-19T13:02:02.908Z,7512
2017-03-19T13:03:03.227Z,7464
2017-03-19T13:04:03.219Z,5680
2017-03-19T13:05:03.207Z,6544
2017-03-19T13:06:03.197Z,10124
2017-03-19T13:07:03.192Z,9192
2017-03-19T13:08:03.187Z,7680
2017-03-19T13:09:03.181Z,6756
2017-03-19T13:10:03.215Z,7224
2017-03-19T13:11:03.161Z,6128
2017-03-19T13:12:02.843Z,5680
2017-03-19T13:13:02.839Z,5972
2017-03-19T13:14:03.142Z,6612
2017-03-19T13:15:03.136Z,8232
2017-03-19T13:16:03.126Z,4956
2017-03-19T13:17:03.121Z,4412
2017-03-19T13:18:03.115Z,4296
2017-03-19T13:19:02.792Z,4684
2017-03-19T13:20:03.095Z,4168
2017-03-19T13:21:02.776Z,4756
2017-03-19T13:22:03.084Z,5656
2017-03-19T13:23:02.760Z,3884
2017-03-19T13:24:03.073Z,4576
2017-03-19T13:25:03.067Z,4340
2017-03-19T13:26:02.742Z,3900
2017-03-19T13:27:02.738Z,3660
2017-03-19T13:28:03.051Z,4140
2017-03-19T13:29:03.032Z,5672
2017-03-19T13:30:02.712Z,4928
2017-03-19T13:31:03.016Z,4852
2017-03-19T13:32:02.701Z,3844
2017-03-19T13:33:02.693Z,4228
2017-03-19T13:34:02.376Z,4464
2017-03-19T13:35:02.682Z,3772
2017-03-19T13:36:02.682Z,5284
2017-03-19T13:37:02.668Z,6472
2017-03-19T13:38:02.659Z,8640
2017-03-19T13:39:02.336Z,7760
2017-03-19T13:40:02.642Z,7496
2017-03-19T13:41:02.625Z,5952
2017-03-19T13:42:02.656Z,4872
2017-03-19T13:43:02.614Z,4784
2017-03-19T13:44:02.615Z,4988
2017-03-19T13:45:02.922Z,4908
2017-03-19T13:46:02.916Z,5624
2017-03-19T13:47:02.906Z,6140
2017-03-19T13:48:02.594Z,6004
2017-03-19T13:49:02.893Z,5048
2017-03-19T13:50:02.883Z,4964
2017-03-19T13:51:02.553Z,4872
2017-03-19T13:52:02.866Z,5504
2017-03-19T13:53:02.235Z,5376
2017-03-19T13:54:02.853Z,5580
2017-03-19T13:55:02.532Z,5904
2017-03-19T13:56:02.520Z,5892
2017-03-19T13:57:02.826Z,7088
2017-03-19T13:58:02.825Z,7240
2017-03-19T13:59:02.502Z,5976
2017-03-19T14:00:02.498Z,6844
2017-03-19T14:01:02.491Z,7116
2017-03-19T14:02:02.794Z,7116
2017-03-19T14:03:02.473Z,7260
2017-03-19T14:04:02.465Z,8140
2017-03-19T14:05:02.783Z,8168
2017-03-19T14:06:02.462Z,7200
2017-03-19T14:07:02.441Z,7872
2017-03-19T14:08:02.431Z,8116
2017-03-19T14:09:02.116Z,8484
2017-03-19T14:10:02.111Z,8020
2017-03-19T14:11:02.096Z,7316
2017-03-19T14:12:02.407Z,6452
2017-03-19T14:13:02.408Z,6448
2017-03-19T14:14:02.711Z,6212
2017-03-19T14:15:02.391Z,6304
2017-03-19T14:16:02.502Z,6184
2017-03-19T14:17:02.388Z,5252
2017-03-19T14:18:02.689Z,4588
2017-03-19T14:19:02.359Z,4152
2017-03-19T14:20:02.355Z,3836
2017-03-19T14:21:02.656Z,3728
2017-03-19T14:22:02.342Z,3052
2017-03-19T14:23:02.361Z,2936
2017-03-19T14:24:02.327Z,2600
2017-03-19T14:25:02.633Z,2456
2017-03-19T14:26:02.316Z,2496
2017-03-19T14:27:02.618Z,2732
2017-03-19T14:28:02.336Z,2076
2017-03-19T14:29:02.300Z,1544
2017-03-19T14:30:02.799Z,1760
2017-03-19T14:31:02.587Z,1528
2017-03-19T14:32:02.268Z,1756
2017-03-19T14:33:02.263Z,1828
2017-03-19T14:34:01.941Z,1412
2017-03-19T14:35:02.563Z,1272
2017-03-19T14:36:02.232Z,1164
2017-03-19T14:37:02.229Z,1068
2017-03-19T14:38:02.547Z,1628
2017-03-19T14:39:02.545Z,1232
2017-03-19T14:40:02.204Z,1092
2017-03-19T14:41:02.512Z,1200
2017-03-19T14:42:02.521Z,1456
2017-03-19T14:43:02.507Z,2236
2017-03-19T14:44:02.499Z,2236
2017-03-19T14:45:02.483Z,2732
2017-03-19T14:46:02.164Z,3308
2017-03-19T14:47:02.468Z,2716
2017-03-19T14:48:02.146Z,2052
2017-03-19T14:49:02.456Z,1896
2017-03-19T14:50:02.448Z,1980
2017-03-19T14:51:02.438Z,1624
2017-03-19T14:52:02.434Z,1556
2017-03-19T14:53:02.428Z,1540
2017-03-19T14:54:02.417Z,1328
2017-03-19T14:55:02.405Z,1720
2017-03-19T14:56:02.403Z,1836
2017-03-19T14:57:02.081Z,1732
2017-03-19T14:58:02.390Z,1860
2017-03-19T14:59:02.380Z,1884
2017-03-19T15:00:02.091Z,1832
2017-03-19T15:01:02.358Z,1916
2017-03-19T15:02:02.354Z,1900
2017-03-19T15:03:02.348Z,1744
2017-03-19T15:04:02.025Z,1720
2017-03-19T15:05:02.347Z,1680
2017-03-19T15:06:02.003Z,1960
2017-03-19T15:07:01.929Z,2180
2017-03-19T15:08:02.642Z,2100
2017-03-19T15:09:02.028Z,1960
2017-03-19T15:10:02.011Z,1612
2017-03-19T15:11:02.515Z,1640
2017-03-19T15:12:02.528Z,1340
2017-03-19T15:13:02.119Z,1232
2017-03-19T15:14:02.453Z,1608
2017-03-19T15:15:02.049Z,1472
2017-03-19T15:16:01.924Z,1372
2017-03-19T15:17:02.308Z,1652
2017-03-19T15:18:01.683Z,1256
2017-03-19T15:19:02.076Z,1128
2017-03-19T15:20:01.967Z,1384
2017-03-19T15:21:01.886Z,1160
2017-03-19T15:22:01.898Z,1360
2017-03-19T15:23:01.870Z,1464
2017-03-19T15:24:02.496Z,1512
2017-03-19T15:25:02.027Z,1208
2017-03-19T15:26:01.894Z,1208
2017-03-19T15:27:01.915Z,1264
2017-03-19T15:28:01.859Z,1696
2017-03-19T15:29:01.929Z,1428
2017-03-19T15:30:01.829Z,1156
2017-03-19T15:31:02.356Z,1488
2017-03-19T15:32:01.696Z,1372
2017-03-19T15:33:01.958Z,1480
2017-03-19T15:34:02.177Z,1880
2017-03-19T15:35:02.192Z,1676
2017-03-19T15:36:02.052Z,1244
2017-03-19T15:37:02.004Z,968
2017-03-19T15:38:02.295Z,972
2017-03-19T15:39:01.916Z,948
2017-03-19T15:40:02.246Z,1016
2017-03-19T15:41:01.498Z,1072
2017-03-19T15:42:01.770Z,980
2017-03-19T15:43:01.825Z,1084
2017-03-19T15:44:02.095Z,1212
2017-03-19T15:45:01.766Z,1332
2017-03-19T15:46:01.698Z,1164
2017-03-19T15:47:01.883Z,1000
2017-03-19T15:48:02.068Z,976
2017-03-19T15:49:01.677Z,1276
2017-03-19T15:50:02.060Z,1120
2017-03-19T15:51:02.141Z,1100
2017-03-19T15:52:01.907Z,1168
2017-03-19T15:53:02.135Z,1184
2017-03-19T15:54:02.129Z,1120
2017-03-19T15:55:01.670Z,1068
2017-03-19T15:56:01.332Z,1028
2017-03-19T15:57:01.279Z,964
2017-03-19T15:58:00.959Z,972
2017-03-19T15:59:02.068Z,1036
2017-03-19T16:00:01.572Z,876
2017-03-19T16:01:01.880Z,940
2017-03-19T16:02:01.795Z,992
2017-03-19T16:03:02.096Z,904
2017-03-19T16:04:02.284Z,944
2017-03-19T16:05:02.189Z,956
2017-03-19T16:06:02.694Z,996
2017-03-19T16:07:01.486Z,860
2017-03-19T16:08:01.800Z,1028
2017-03-19T16:09:01.833Z,884
2017-03-19T16:10:02.254Z,828
2017-03-19T16:11:01.853Z,808
2017-03-19T16:12:02.699Z,868
2017-03-19T16:13:02.186Z,848
2017-03-19T16:14:02.462Z,856
2017-03-19T16:15:02.220Z,892
2017-03-19T16:16:02.287Z,868
2017-03-19T16:17:02.211Z,836
2017-03-19T16:18:02.420Z,688
2017-03-19T16:19:02.221Z,720
2017-03-19T16:20:02.003Z,744
2017-03-19T16:21:02.189Z,600
2017-03-19T16:22:02.192Z,608
2017-03-19T16:23:02.913Z,700
2017-03-19T16:24:02.989Z,668
2017-03-19T16:25:01.912Z,604
2017-03-19T16:26:01.195Z,652
2017-03-19T16:27:02.455Z,616
2017-03-19T16:28:02.321Z,744
2017-03-19T16:29:02.045Z,848
2017-03-19T16:30:02.605Z,720
2017-03-19T16:31:02.625Z,660
2017-03-19T16:32:01.826Z,708
2017-03-19T16:33:02.371Z,772
2017-03-19T16:34:01.772Z,648
2017-03-19T16:35:01.420Z,548
2017-03-19T16:36:01.521Z,576
2017-03-19T16:37:02.113Z,596
2017-03-19T16:38:01.566Z,692
2017-03-19T16:39:01.944Z,676
2017-03-19T16:40:01.504Z,648
2017-03-19T16:41:01.501Z,616
2017-03-19T16:42:01.662Z,592
2017-03-19T16:43:01.601Z,536
2017-03-19T16:44:01.581Z,492
2017-03-19T16:45:01.869Z,472
2017-03-19T16:46:02.037Z,432
2017-03-19T16:47:02.026Z,408
2017-03-19T16:48:01.627Z,364
2017-03-19T16:49:01.914Z,336
2017-03-19T16:50:01.586Z,324
2017-03-19T16:51:01.237Z,320
2017-03-19T16:52:01.680Z,300
2017-03-19T16:53:01.803Z,264
2017-03-19T16:54:01.959Z,232
2017-03-19T16:55:01.744Z,224
2017-03-19T16:56:01.673Z,220
2017-03-19T16:57:01.303Z,196
2017-03-19T16:58:01.740Z,200
2017-03-19T16:59:01.911Z,196
2017-03-19T17:00:01.882Z,196
2017-03-19T17:01:01.644Z,192
2017-03-19T17:02:01.362Z,180
2017-03-19T17:03:01.613Z,176
2017-03-19T17:04:01.502Z,176
2017-03-19T17:05:01.329Z,148
2017-03-19T17:06:01.767Z,152
2017-03-19T17:07:01.250Z,152
2017-03-19T17:08:01.544Z,128
2017-03-19T17:09:01.609Z,108
2017-03-19T17:10:01.741Z,96
2017-03-19T17:11:01.840Z,92
2017-03-19T17:12:01.415Z,88
2017-03-19T17:13:01.460Z,76
2017-03-19T17:14:01.921Z,76
2017-03-19T17:15:01.413Z,72
2017-03-19T17:16:01.360Z,60
2017-03-19T17:17:01.738Z,52
2017-03-19T17:18:01.173Z,48
2017-03-19T17:19:01.452Z,48
2017-03-19T17:20:02.362Z,44
2017-03-19T17:21:01.696Z,44
2017-03-19T17:22:01.230Z,36
2017-03-19T17:23:01.040Z,36
2017-03-19T17:24:01.706Z,36
2017-03-19T17:25:02.647Z,32
2017-03-19T17:26:01.814Z,28
2017-03-19T17:27:01.515Z,28
2017-03-19T17:28:02.267Z,20
2017-03-19T17:29:02.029Z,20
2017-03-19T17:30:02.009Z,16
2017-03-19T17:31:01.367Z,16
2017-03-19T17:32:01.252Z,12
2017-03-19T17:33:01.430Z,8
2017-03-19T17:34:01.584Z,8
2017-03-19T17:35:01.511Z,8
2017-03-19T17:36:01.848Z,8
2017-03-19T17:37:01.644Z,4
2017-03-19T17:38:01.632Z,8
2017-03-19T17:39:01.119Z,4
2017-03-19T17:40:01.173Z,0
2017-03-19T17:41:01.186Z,4
2017-03-19T17:42:01.137Z,4
2017-03-19T17:43:01.657Z,4
2017-03-19T17:44:01.573Z,0
2017-03-19T17:45:00.951Z,4
2017-03-19T17:46:00.983Z,4
2017-03-19T17:47:01.712Z,0
2017-03-19T17:48:01.918Z,0
2017-03-19T17:49:01.070Z,0
2017-03-19T17:50:02.189Z,0
2017-03-19T17:51:01.480Z,0
2017-03-19T17:52:01.578Z,0
2017-03-19T17:53:01.066Z,0
2017-03-19T17:54:01.165Z,0
2017-03-19T17:55:01.948Z,0
2017-03-19T17:56:01.427Z,0
2017-03-19T17:57:01.478Z,0
2017-03-19T17:58:01.559Z,0
2017-03-19T17:59:00.513Z,0
2017-03-19T18:00:01.078Z,0
2017-03-19T18:01:01.237Z,0
2017-03-19T18:02:01.109Z,0
2017-03-19T18:03:01.331Z,0
2017-03-19T18:04:01.198Z,0
2017-03-19T18:05:01.237Z,0
2017-03-19T18:06:01.228Z,0
2017-03-19T18:07:01.175Z,0
2017-03-19T18:08:01.994Z,0
2017-03-19T18:09:00.493Z,0
2017-03-19T18:10:00.797Z,0
2017-03-19T18:11:00.782Z,0
2017-03-19T18:12:00.773Z,0
2017-03-19T18:13:00.770Z,0
2017-03-19T18:14:00.453Z,0
2017-03-19T18:15:00.757Z,0
2017-03-19T18:16:00.740Z,0
2017-03-19T18:17:00.733Z,0
2017-03-19T18:18:00.128Z,0
2017-03-19T18:19:00.717Z,0
2017-03-19T18:20:00.707Z,0
2017-03-19T18:21:00.062Z,0
2017-03-19T18:22:00.373Z,0
2017-03-19T18:23:00.687Z,0
2017-03-19T18:24:00.047Z,0
2017-03-19T18:25:00.037Z,0
2017-03-19T18:26:00.332Z,0
2017-03-19T18:27:00.353Z,0
2017-03-19T18:28:00.323Z,0
2017-03-19T18:29:00.629Z,0
2017-03-19T18:30:00.639Z,0
2017-03-19T18:31:00.606Z,0
2017-03-19T18:32:00.281Z,0
2017-03-19T18:33:00.593Z,0
2017-03-19T18:34:00.589Z,0
2017-03-19T18:35:00.262Z,0
2017-03-19T18:36:00.242Z,0
2017-03-19T18:37:00.354Z,0
2017-03-19T18:38:00.228Z,0
2017-03-19T18:39:00.539Z,0
2017-03-19T18:40:00.107Z,0
2017-03-19T18:40:59.885Z,0
2017-03-19T18:42:00.245Z,0
2017-03-19T18:43:00.209Z,0
2017-03-19T18:44:00.181Z,0
2017-03-19T18:44:59.849Z,0
2017-03-19T18:46:01.242Z,0
2017-03-19T18:47:00.161Z,0
2017-03-19T18:48:00.259Z,0
2017-03-19T18:49:00.137Z,0
2017-03-19T18:50:00.129Z,0
2017-03-19T18:51:00.384Z,0
2017-03-19T18:52:00.106Z,0
2017-03-19T18:53:00.417Z,0
2017-03-19T18:54:00.385Z,0
2017-03-19T18:55:00.391Z,0
2017-03-19T18:56:00.419Z,0
2017-03-19T18:57:00.222Z,0
2017-03-19T18:57:59.739Z,0
2017-03-19T18:59:00.542Z,0
2017-03-19T19:00:00.355Z,0
2017-03-19T19:01:00.024Z,0
2017-03-19T19:02:00.577Z,0
2017-03-19T19:03:00.327Z,0
2017-03-19T19:04:00.317Z,0
2017-03-19T19:04:59.763Z,0
2017-03-19T19:06:00.292Z,0
2017-03-19T19:07:00.803Z,0
2017-03-19T19:07:59.967Z,0
2017-03-19T19:08:59.959Z,0
2017-03-19T19:10:00.982Z,0
2017-03-19T19:10:59.933Z,0
2017-03-19T19:12:00.592Z,0
2017-03-19T19:13:00.235Z,0
2017-03-19T19:14:00.563Z,0
2017-03-19T19:14:59.911Z,0
2017-03-19T19:15:59.894Z,0
2017-03-19T19:17:00.823Z,0
2017-03-19T19:17:59.931Z,0
2017-03-19T19:18:59.864Z,0
2017-03-19T19:19:59.850Z,0
2017-03-19T19:20:59.945Z,0
2017-03-19T19:21:59.866Z,0
2017-03-19T19:23:00.333Z,0
2017-03-19T19:23:59.821Z,0
2017-03-19T19:25:00.121Z,0
2017-03-19T19:25:59.967Z,0
2017-03-19T19:27:00.118Z,0
2017-03-19T19:27:59.961Z,0
2017-03-19T19:28:59.769Z,0
2017-03-19T19:30:00.079Z,0
2017-03-19T19:30:59.687Z,0
2017-03-19T19:31:59.806Z,0
2017-03-19T19:33:00.090Z,0
2017-03-19T19:34:00.141Z,0
2017-03-19T19:35:00.101Z,0
2017-03-19T19:36:00.029Z,0
2017-03-19T19:37:00.011Z,0
2017-03-19T19:38:00.250Z,0
2017-03-19T19:38:59.687Z,0
2017-03-19T19:39:59.683Z,0
2017-03-19T19:40:59.848Z,0
2017-03-19T19:41:59.653Z,0
2017-03-19T19:43:00.210Z,0
2017-03-19T19:43:59.964Z,0
2017-03-19T19:44:59.313Z,0
2017-03-19T19:45:59.995Z,0
2017-03-19T19:46:59.968Z,0
2017-03-19T19:47:59.864Z,0
2017-03-19T19:48:59.904Z,0
2017-03-19T19:49:59.766Z,0
2017-03-19T19:50:59.259Z,0
2017-03-19T19:51:59.813Z,0
2017-03-19T19:52:59.993Z,0
2017-03-19T19:53:59.861Z,0
2017-03-19T19:55:00.195Z,0
2017-03-19T19:55:59.211Z,0
2017-03-19T19:57:00.490Z,0
2017-03-19T19:57:59.905Z,0
2017-03-19T19:58:59.309Z,0
2017-03-19T19:59:59.810Z,0
2017-03-19T20:00:59.167Z,0
2017-03-19T20:01:59.256Z,0
2017-03-19T20:02:59.149Z,0
2017-03-19T20:04:00.366Z,0
2017-03-19T20:04:59.764Z,0
2017-03-19T20:05:59.763Z,0
2017-03-19T20:07:00.099Z,0
2017-03-19T20:07:59.739Z,0
2017-03-19T20:08:59.718Z,0
2017-03-19T20:09:59.714Z,0
2017-03-19T20:10:59.700Z,0
2017-03-19T20:11:59.179Z,0
2017-03-19T20:12:59.745Z,0
2017-03-19T20:13:59.362Z,0
2017-03-19T20:14:59.682Z,0
2017-03-19T20:15:59.341Z,0
2017-03-19T20:16:59.393Z,0
2017-03-19T20:17:59.784Z,0
2017-03-19T20:18:59.632Z,0
2017-03-19T20:19:59.840Z,0
2017-03-19T20:20:59.292Z,0
2017-03-19T20:21:58.979Z,0
2017-03-19T20:22:58.972Z,0
2017-03-19T20:23:58.997Z,0
2017-03-19T20:24:59.268Z,0
2017-03-19T20:25:59.249Z,0
2017-03-19T20:26:58.927Z,0
2017-03-19T20:27:59.291Z,0
2017-03-19T20:28:59.220Z,0
2017-03-19T20:29:59.214Z,0
2017-03-19T20:30:59.199Z,0
2017-03-19T20:31:59.547Z,0
2017-03-19T20:32:59.190Z,0
2017-03-19T20:33:59.201Z,0
2017-03-19T20:34:59.493Z,0
2017-03-19T20:35:59.471Z,0
2017-03-19T20:36:59.151Z,0
2017-03-19T20:37:59.452Z,0
2017-03-19T20:38:59.134Z,0
2017-03-19T20:39:59.129Z,0
2017-03-19T20:40:59.116Z,0
2017-03-19T20:41:59.415Z,0
2017-03-19T20:42:59.409Z,0
2017-03-19T20:43:59.403Z,0
2017-03-19T20:44:59.391Z,0
2017-03-19T20:45:59.066Z,0
2017-03-19T20:46:58.745Z,0
2017-03-19T20:47:59.362Z,0
2017-03-19T20:48:59.355Z,0
2017-03-19T20:49:59.031Z,0
2017-03-19T20:50:58.701Z,0
2017-03-19T20:51:59.325Z,0
2017-03-19T20:52:58.692Z,0
2017-03-19T20:53:58.994Z,0
2017-03-19T20:54:58.979Z,0
2017-03-19T20:55:58.983Z,0
2017-03-19T20:56:59.273Z,0
2017-03-19T20:57:59.275Z,0
2017-03-19T20:58:58.951Z,0
2017-03-19T20:59:59.248Z,0
2017-03-19T21:00:59.237Z,0
2017-03-19T21:01:58.913Z,0
2017-03-19T21:02:58.910Z,0
2017-03-19T21:03:58.902Z,0
2017-03-19T21:04:58.893Z,0
2017-03-19T21:05:59.195Z,0
2017-03-19T21:06:58.868Z,0
2017-03-19T21:07:58.860Z,0
2017-03-19T21:08:58.853Z,0
2017-03-19T21:09:59.164Z,0
2017-03-19T21:10:58.828Z,0
2017-03-19T21:11:59.144Z,0
2017-03-19T21:12:59.133Z,0
2017-03-19T21:13:59.131Z,0
2017-03-19T21:14:59.110Z,0
2017-03-19T21:15:59.098Z,0
2017-03-19T21:16:58.770Z,0
2017-03-19T21:17:58.773Z,0
2017-03-19T21:18:59.077Z,0
2017-03-19T21:19:59.068Z,0
2017-03-19T21:20:58.737Z,0
2017-03-19T21:21:59.045Z,0
2017-03-19T21:22:59.041Z,0
2017-03-19T21:23:58.711Z,0
2017-03-19T21:24:59.017Z,0
2017-03-19T21:25:58.691Z,0
2017-03-19T21:26:58.689Z,0
2017-03-19T21:27:58.992Z,0
2017-03-19T21:28:58.986Z,0
2017-03-19T21:29:58.977Z,0
2017-03-19T21:30:58.991Z,0
2017-03-19T21:31:58.643Z,0
2017-03-19T21:32:58.944Z,0
2017-03-19T21:33:58.939Z,0
2017-03-19T21:34:58.933Z,0
2017-03-19T21:35:58.909Z,0
2017-03-19T21:36:58.903Z,0
2017-03-19T21:37:58.896Z,0
2017-03-19T21:38:58.888Z,0
2017-03-19T21:39:58.877Z,0
2017-03-19T21:40:58.551Z,0
2017-03-19T21:41:58.538Z,0
2017-03-19T21:42:58.540Z,0
2017-03-19T21:43:58.528Z,0
2017-03-19T21:44:58.521Z,0
2017-03-19T21:45:58.506Z,0
2017-03-19T21:46:58.492Z,0
2017-03-19T21:47:58.811Z,0
2017-03-19T21:48:58.478Z,0
2017-03-19T21:49:58.475Z,0
2017-03-19T21:50:58.456Z,0
2017-03-19T21:51:58.766Z,0
2017-03-19T21:52:58.763Z,0
2017-03-19T21:53:58.120Z,0
2017-03-19T21:54:58.743Z,0
2017-03-19T21:55:58.422Z,0
2017-03-19T21:56:58.727Z,0
2017-03-19T21:57:58.715Z,0
2017-03-19T21:58:58.080Z,0
2017-03-19T21:59:58.694Z,0
2017-03-19T22:00:58.052Z,0
2017-03-19T22:01:58.359Z,0
2017-03-19T22:02:58.040Z,0
2017-03-19T22:03:58.666Z,0
2017-03-19T22:04:58.340Z,0
2017-03-19T22:05:58.011Z,0
2017-03-19T22:06:57.995Z,0
2017-03-19T22:07:58.002Z,0
2017-03-19T22:08:57.987Z,0
2017-03-19T22:09:58.297Z,0
2017-03-19T22:10:58.277Z,0
2017-03-19T22:11:58.267Z,0
2017-03-19T22:12:58.585Z,0
2017-03-19T22:13:58.571Z,0